createdAt,value
2022-10-28T00:02:21.231Z,11.63
2022-10-28T00:07:23.944Z,13.13
2022-10-28T00:12:26.620Z,12.85
2022-10-28T00:17:29.354Z,14.25
2022-10-28T00:22:31.969Z,13.23
2022-10-28T00:27:34.828Z,12.95
2022-10-28T00:32:37.510Z,12.90
2022-10-28T00:37:40.147Z,11.35
2022-10-28T00:42:42.848Z,10.15
2022-10-28T00:47:56.004Z,9.80
2022-10-28T00:53:03.448Z,11.70
2022-10-28T00:58:08.479Z,12.07
2022-10-28T01:03:11.320Z,11.52
2022-10-28T01:08:14.520Z,9.18
2022-10-28T01:13:22.715Z,9.88
2022-10-28T01:18:40.569Z,9.13
2022-10-28T01:23:52.238Z,8.53
2022-10-28T01:29:22.593Z,9.18
2022-10-28T01:34:31.661Z,8.80
2022-10-28T01:39:38.931Z,10.50
2022-10-28T01:44:51.819Z,7.28
2022-10-28T01:49:56.805Z,10.70
2022-10-28T01:55:10.910Z,9.40
2022-10-28T02:00:14.190Z,9.43
2022-10-28T02:05:53.448Z,9.27
2022-10-28T02:11:03.166Z,8.93
2022-10-28T02:16:20.762Z,8.30
2022-10-28T02:21:42.638Z,8.60
2022-10-28T02:26:55.653Z,9.80
2022-10-28T02:32:12.198Z,8.80
2022-10-28T02:37:33.989Z,8.25
2022-10-28T02:42:50.701Z,8.43
2022-10-28T02:48:02.831Z,8.65
2022-10-28T02:53:15.749Z,9.13
2022-10-28T02:58:19.357Z,9.25
2022-10-28T03:03:22.191Z,10.38
2022-10-28T03:08:25.638Z,9.47
2022-10-28T03:13:28.299Z,10.10
2022-10-28T03:18:31.008Z,9.23
2022-10-28T03:23:33.669Z,9.88
2022-10-28T03:28:36.441Z,9.63
2022-10-28T03:33:39.183Z,9.17
2022-10-28T03:38:41.869Z,8.52
2022-10-28T03:43:44.818Z,10.10
2022-10-28T03:48:47.568Z,7.25
2022-10-28T03:53:50.258Z,9.85
2022-10-28T04:04:00.580Z,8.60
2022-10-28T04:09:03.519Z,9.35
2022-10-28T04:14:06.301Z,9.10
2022-10-28T04:19:09.120Z,8.45
2022-10-28T04:24:11.796Z,9.50
2022-10-28T04:29:14.390Z,9.75
2022-10-28T04:34:17.017Z,8.50
2022-10-28T04:39:19.660Z,8.48
2022-10-28T04:44:22.368Z,8.73
2022-10-28T04:49:25.009Z,7.77
2022-10-28T04:54:28.122Z,8.07
2022-10-28T04:59:30.868Z,7.93
2022-10-28T05:04:33.488Z,8.23
2022-10-28T05:09:36.324Z,11.32
2022-10-28T05:14:39.002Z,9.63
2022-10-28T05:19:42.498Z,9.18
2022-10-28T05:24:45.359Z,8.75
2022-10-28T05:29:48.060Z,7.85
2022-10-28T05:34:50.852Z,7.53
2022-10-28T05:39:53.850Z,9.03
2022-10-28T05:44:56.592Z,8.63
2022-10-28T05:49:59.601Z,8.77
2022-10-28T05:55:02.667Z,7.13
2022-10-28T06:00:06.898Z,8.07
2022-10-28T06:05:15.760Z,8.50
2022-10-28T06:10:18.749Z,9.13
2022-10-28T06:15:20.241Z,8.10
2022-10-28T06:20:23.011Z,8.07
2022-10-28T06:25:26.527Z,7.85
2022-10-28T06:30:29.238Z,9.63
2022-10-28T06:39:38.599Z,9.37
2022-10-28T06:44:41.529Z,10.45
2022-10-28T06:49:45.839Z,9.88
2022-10-28T06:54:48.594Z,10.93
2022-10-28T06:59:51.276Z,12.70
2022-10-28T07:04:54.122Z,11.50
2022-10-28T07:09:56.865Z,15.25
2022-10-28T07:14:59.653Z,15.00
2022-10-28T07:20:02.350Z,16.23
2022-10-28T07:25:05.398Z,16.92
2022-10-28T07:30:08.891Z,17.53
2022-10-28T07:35:11.637Z,18.58
2022-10-28T07:40:15.027Z,15.90
2022-10-28T07:45:18.884Z,14.53
2022-10-28T07:50:21.718Z,12.02
2022-10-28T07:55:24.509Z,12.10
2022-10-28T08:00:27.275Z,12.23
2022-10-28T08:05:29.981Z,11.80
2022-10-28T08:10:32.863Z,10.47
2022-10-28T08:15:35.943Z,10.50
2022-10-28T08:20:38.716Z,9.50
2022-10-28T08:25:52.280Z,11.23
2022-10-28T08:31:08.390Z,14.45
2022-10-28T08:36:14.033Z,15.03
2022-10-28T08:41:30.257Z,17.33
2022-10-28T08:46:54.804Z,19.07
2022-10-28T08:52:06.259Z,14.73
2022-10-28T08:57:18.116Z,11.90
2022-10-28T09:02:28.817Z,10.70
2022-10-28T09:07:34.127Z,10.63
2022-10-28T09:13:03.507Z,9.73
2022-10-28T09:18:26.543Z,10.25
2022-10-28T09:23:34.073Z,10.38
2022-10-28T09:29:09.990Z,11.60
2022-10-28T09:34:47.415Z,13.48
2022-10-28T09:40:01.735Z,14.30
2022-10-28T09:45:14.199Z,16.63
2022-10-28T09:50:21.207Z,15.43
2022-10-28T09:55:24.580Z,12.70
2022-10-28T10:00:27.368Z,13.43
2022-10-28T10:05:33.430Z,12.63
2022-10-28T10:11:19.642Z,14.35
2022-10-28T10:16:44.677Z,14.85
2022-10-28T10:21:52.977Z,16.30
2022-10-28T10:26:56.954Z,15.02
2022-10-28T10:32:27.416Z,13.90
2022-10-28T10:37:33.370Z,14.18
2022-10-28T10:42:42.710Z,12.90
2022-10-28T10:48:20.791Z,20.90
2022-10-28T10:53:28.018Z,19.67
2022-10-28T10:58:38.009Z,20.70
2022-10-28T11:04:11.406Z,21.00
2022-10-28T11:09:37.570Z,17.88
2022-10-28T11:14:53.476Z,13.00
2022-10-28T11:19:59.220Z,12.52
2022-10-28T11:25:20.629Z,10.53
2022-10-28T11:30:36.009Z,14.30
2022-10-28T11:35:38.917Z,13.30
2022-10-28T11:40:53.887Z,10.27
2022-10-28T11:46:04.043Z,9.25
2022-10-28T11:51:31.388Z,8.73
2022-10-28T11:56:46.097Z,9.30
2022-10-28T12:02:19.685Z,9.38
2022-10-28T12:07:57.789Z,8.53
2022-10-28T12:13:24.148Z,8.82
2022-10-28T12:18:34.326Z,8.90
2022-10-28T12:23:39.494Z,9.57
2022-10-28T12:28:57.201Z,8.35
2022-10-28T12:34:04.922Z,8.83
2022-10-28T12:39:23.345Z,9.23
2022-10-28T12:44:28.585Z,9.00
2022-10-28T12:49:37.427Z,9.20
2022-10-28T12:54:53.906Z,9.90
2022-10-28T13:00:20.464Z,9.20
2022-10-28T13:05:31.286Z,9.85
2022-10-28T13:11:06.966Z,10.27
2022-10-28T13:16:15.355Z,10.18
2022-10-28T13:21:33.593Z,10.73
2022-10-28T13:26:41.362Z,10.53
2022-10-28T13:31:48.209Z,10.57
2022-10-28T13:37:00.497Z,9.93
2022-10-28T13:42:26.345Z,10.63
2022-10-28T13:47:36.868Z,10.90
2022-10-28T13:53:18.332Z,10.23
2022-10-28T13:58:23.976Z,9.52
2022-10-28T14:03:28.225Z,9.57
2022-10-28T14:08:42.113Z,9.43
2022-10-28T14:13:56.971Z,9.25
2022-10-28T14:19:04.781Z,8.13
2022-10-28T14:24:09.195Z,7.95
2022-10-28T14:29:30.143Z,7.60
2022-10-28T14:34:38.041Z,7.72
2022-10-28T14:40:15.785Z,7.00
2022-10-28T14:45:21.578Z,6.90
2022-10-28T14:50:34.452Z,7.10
2022-10-28T14:55:37.646Z,7.57
2022-10-28T15:00:48.270Z,7.57
2022-10-28T15:05:51.002Z,6.53
2022-10-28T15:10:53.962Z,7.17
2022-10-28T15:15:59.402Z,7.50
2022-10-28T15:21:15.561Z,7.73
2022-10-28T15:26:19.200Z,7.47
2022-10-28T15:31:21.960Z,7.90
2022-10-28T15:36:26.769Z,8.37
2022-10-28T15:41:29.531Z,7.50
2022-10-28T15:46:34.238Z,7.93
2022-10-28T15:51:36.984Z,8.15
2022-10-28T15:57:00.050Z,8.35
2022-10-28T16:02:03.085Z,8.00
2022-10-28T16:07:08.711Z,8.38
2022-10-28T16:12:17.777Z,8.60
2022-10-28T16:17:33.708Z,9.07
2022-10-28T16:22:37.777Z,9.05
2022-10-28T16:27:40.807Z,8.80
2022-10-28T16:32:49.117Z,8.20
2022-10-28T16:37:55.529Z,8.40
2022-10-28T16:42:58.929Z,8.45
2022-10-28T16:48:01.698Z,8.45
2022-10-28T16:53:04.579Z,9.40
2022-10-28T16:58:08.047Z,9.05
2022-10-28T17:03:15.670Z,9.70
2022-10-28T17:08:31.063Z,9.93
2022-10-28T17:13:41.438Z,9.50
2022-10-28T17:18:44.807Z,9.90
2022-10-28T17:23:47.660Z,10.68
2022-10-28T17:28:53.664Z,11.50
2022-10-28T17:33:56.650Z,10.30
2022-10-28T17:38:59.562Z,10.55
2022-10-28T17:44:02.801Z,11.57
2022-10-28T17:49:08.855Z,11.20
2022-10-28T17:54:12.107Z,12.30
2022-10-28T17:59:15.342Z,11.73
2022-10-28T18:04:20.128Z,10.57
2022-10-28T18:09:23.657Z,12.17
2022-10-28T18:14:26.448Z,11.77
2022-10-28T18:19:29.466Z,11.73
2022-10-28T18:24:32.382Z,11.85
2022-10-28T18:29:35.098Z,11.95
2022-10-28T18:34:37.947Z,11.47
2022-10-28T18:39:40.789Z,11.77
2022-10-28T18:44:43.599Z,11.27
2022-10-28T18:49:46.256Z,12.32
2022-10-28T18:54:48.968Z,12.43
2022-10-28T19:00:17.544Z,12.57
2022-10-28T19:05:14.555Z,13.48
2022-10-28T19:10:17.408Z,12.07
2022-10-28T19:15:20.238Z,13.18
2022-10-28T19:20:24.168Z,12.88
2022-10-28T19:25:27.070Z,12.33
2022-10-28T19:30:30.222Z,13.80
2022-10-28T19:35:33.995Z,14.90
2022-10-28T19:40:36.764Z,15.65
2022-10-28T19:45:39.570Z,15.02
2022-10-28T19:50:49.513Z,13.80
2022-10-28T19:55:57.433Z,15.55
2022-10-28T20:01:05.722Z,15.67
2022-10-28T20:06:14.111Z,12.55
2022-10-28T20:11:28.430Z,14.88
2022-10-28T20:16:33.428Z,15.20
2022-10-28T20:21:37.860Z,16.80
2022-10-28T20:26:40.943Z,18.30
2022-10-28T20:31:44.048Z,17.02
2022-10-28T20:36:46.912Z,18.80
2022-10-28T20:41:51.524Z,17.97
2022-10-28T20:46:54.270Z,18.27
2022-10-28T20:51:57.058Z,16.27
2022-10-28T20:56:59.821Z,18.80
2022-10-28T21:02:02.715Z,19.60
2022-10-28T21:07:05.648Z,18.63
2022-10-28T21:12:08.478Z,18.13
2022-10-28T21:17:11.202Z,19.53
2022-10-28T21:22:13.905Z,20.67
2022-10-28T21:27:16.674Z,17.95
2022-10-28T21:32:19.422Z,17.37
2022-10-28T21:37:22.108Z,17.92
2022-10-28T21:42:25.261Z,18.50
2022-10-28T21:47:28.601Z,17.33
2022-10-28T21:52:31.764Z,16.17
2022-10-28T21:57:34.440Z,17.13
2022-10-28T22:02:37.366Z,17.35
2022-10-28T22:07:40.142Z,16.77
2022-10-28T22:12:42.911Z,15.57
2022-10-28T22:17:45.660Z,17.48
2022-10-28T22:22:48.381Z,13.30
2022-10-28T22:27:51.169Z,15.52
2022-10-28T22:32:54.186Z,14.93
2022-10-28T22:37:57.197Z,14.55
2022-10-28T22:43:00.121Z,14.93
2022-10-28T22:48:02.890Z,16.77
2022-10-28T22:53:05.688Z,15.35
2022-10-28T22:58:08.421Z,16.33
2022-10-28T23:03:11.690Z,15.82
2022-10-28T23:08:17.485Z,16.13
2022-10-28T23:13:20.132Z,16.97
2022-10-28T23:18:28.335Z,14.40
2022-10-28T23:23:31.144Z,14.87
2022-10-28T23:28:34.024Z,15.30
2022-10-28T23:33:36.758Z,14.93
2022-10-28T23:38:39.488Z,15.20
2022-10-28T23:43:43.112Z,16.15
2022-10-28T23:48:45.971Z,14.83
2022-10-28T23:53:48.690Z,15.80
2022-10-28T23:58:51.369Z,17.50
